CDT,Max TemperatureF,Mean TemperatureF,Min TemperatureF,Max Dew PointF,MeanDew PointF,Min DewpointF,Max Humidity, Mean Humidity, Min Humidity, Max Sea Level PressureIn, Mean Sea Level PressureIn, Min Sea Level PressureIn, Max VisibilityMiles, Mean VisibilityMiles, Min VisibilityMiles, Max Wind SpeedMPH, Mean Wind SpeedMPH, Max Gust SpeedMPH,PrecipitationIn, CloudCover, Events, WindDirDegrees
2013-10-1,80,69,57,65,62,54,100,77,54,29.98,29.92,29.84,10,7,0,21,6,26,0.00,3,Fog,188
2013-10-2,82,72,61,70,65,60,100,79,58,30.02,29.96,29.86,10,6,0,14,6,17,0.00,4,Fog,167
2013-10-3,84,75,66,69,66,61,93,76,58,29.90,29.82,29.72,10,10,8,26,12,39,0.00,4,Thunderstorm,171
2013-10-4,86,74,61,69,66,63,93,72,51,29.92,29.81,29.72,10,8,1,25,14,35,0.45,3,Rain-Thunderstorm,189
2013-10-5,61,54,46,56,39,33,71,57,43,30.01,29.95,29.91,10,10,10,17,8,24,0.01,2,Rain,283
2013-10-6,61,52,42,43,38,33,80,64,47,30.01,29.92,29.86,10,10,10,21,10,29,0.00,5,,291
2013-10-7,71,57,43,46,41,36,86,60,33,30.15,30.08,30.00,10,10,6,10,5,14,0.00,0,,256
2013-10-8,74,61,47,49,45,42,80,58,35,30.11,30.07,30.01,10,10,10,20,9,26,0.00,0,,167
2013-10-9,74,62,49,50,47,45,86,62,38,30.10,30.05,30.01,10,10,10,15,8,21,0.00,0,,159
2013-10-10,77,63,48,55,50,46,93,68,43,30.07,29.99,29.86,10,10,10,17,9,23,0.00,0,,162
2013-10-11,75,66,56,63,58,52,93,79,64,29.88,29.82,29.76,10,9,2,24,13,32,0.23,3,Rain-Thunderstorm,177
2013-10-12,70,59,47,57,43,35,90,59,28,30.25,30.08,29.88,10,10,10,16,7,21,0.00,1,,353
2013-10-13,70,58,46,41,36,33,82,54,26,30.40,30.32,30.27,10,10,10,17,8,23,0.00,0,,73
2013-10-14,66,60,53,58,48,33,90,67,43,30.27,30.04,29.86,10,10,6,28,15,37,0.14,4,Rain,148
2013-10-15,60,53,45,58,47,37,93,70,47,30.08,29.96,29.88,10,9,2,17,9,22,0.06,3,Rain,282
2013-10-16,58,51,43,44,38,36,82,67,51,30.12,30.06,29.99,10,10,9,14,5,23,0.01,5,Rain,301
2013-10-17,65,54,42,43,39,33,89,62,34,30.02,29.97,29.90,10,10,10,16,7,24,0.00,1,,257
2013-10-18,47,41,35,38,35,31,92,75,58,30.13,30.10,30.03,10,9,5,14,6,16,0.16,5,Rain,318
2013-10-19,61,47,33,39,35,32,100,68,36,30.09,30.01,29.91,10,8,2,16,8,22,0.00,4,,226
2013-10-20,69,56,43,44,40,37,82,59,35,29.92,29.86,29.80,10,10,10,17,8,24,0.00,1,,223
2013-10-21,55,47,39,41,33,27,85,62,38,30.13,30.06,29.94,10,10,10,18,7,24,0.00,1,,342
2013-10-22,62,50,38,43,37,32,76,60,43,30.11,29.98,29.92,10,10,9,21,10,29,0.00,3,,295
2013-10-23,50,42,33,35,32,27,96,73,49,30.18,30.13,30.06,10,10,9,14,4,21,0.00,4,,320
2013-10-24,50,41,31,35,28,22,82,57,32,30.45,30.34,30.18,10,10,9,17,6,22,0.00,2,,350
2013-10-25,55,42,29,30,25,22,85,56,26,30.49,30.37,30.16,10,10,10,18,7,23,0.00,1,,191
2013-10-26,61,49,36,41,34,28,85,57,29,30.18,30.13,30.09,10,10,10,16,7,20,0.00,0,,294
2013-10-27,62,46,29,33,29,27,92,61,29,30.15,30.06,29.96,10,10,1,14,5,20,0.00,0,,190
2013-10-28,64,51,37,51,42,30,89,76,62,30.14,30.10,30.00,10,9,5,14,6,18,0.00,0,,155
2013-10-29,65,58,51,64,55,48,100,92,83,30.09,30.01,29.93,10,3,0,14,7,18,0.97,8,Fog-Rain,127
2013-10-30,68,63,58,65,62,59,100,91,81,29.97,29.80,29.71,10,5,0,21,11,26,2.35,8,Fog-Rain-Thunderstorm,189
2013-10-31,59,52,45,61,51,41,100,89,77,29.71,29.63,29.56,10,6,1,15,6,21,1.00,7,Rain-Thunderstorm,323